createdAt,value
2023-02-03T00:01:17.537Z,1.27
2023-02-03T00:03:18.426Z,1.02
2023-02-03T00:05:19.556Z,0.53
2023-02-03T00:07:20.416Z,0.23
2023-02-03T00:09:21.162Z,0.82
2023-02-03T00:11:22.331Z,0.47
2023-02-03T00:13:25.087Z,0.20
2023-02-03T00:15:26.358Z,1.42
2023-02-03T00:17:27.128Z,0.20
2023-02-03T00:19:27.926Z,0.50
2023-02-03T00:21:28.788Z,0.20
2023-02-03T00:23:31.250Z,0.75
2023-02-03T00:25:32.013Z,0.15
2023-02-03T00:27:32.764Z,0.50
2023-02-03T00:29:33.830Z,1.02
2023-02-03T00:31:34.844Z,0.37
2023-02-03T00:33:35.769Z,0.78
2023-02-03T00:35:39.805Z,0.50
2023-02-03T00:37:40.662Z,0.30
2023-02-03T00:39:41.630Z,0.90
2023-02-03T00:41:42.409Z,0.60
2023-02-03T00:43:43.259Z,0.47
2023-02-03T00:45:44.044Z,0.37
2023-02-03T00:47:45.097Z,0.53
2023-02-03T00:49:47.551Z,0.72
2023-02-03T00:51:48.330Z,0.72
2023-02-03T00:53:49.160Z,0.68
2023-02-03T00:55:51.273Z,1.00
2023-02-03T00:57:52.025Z,1.00
2023-02-03T00:59:54.194Z,0.45
2023-02-03T01:01:55.034Z,0.23
2023-02-03T01:03:56.177Z,1.20
2023-02-03T01:05:58.831Z,1.60
2023-02-03T01:08:00.190Z,1.07
2023-02-03T01:10:00.946Z,0.85
2023-02-03T01:12:01.907Z,1.37
2023-02-03T01:14:02.755Z,0.82
2023-02-03T01:16:05.454Z,1.40
2023-02-03T01:18:08.126Z,0.95
2023-02-03T01:20:11.394Z,0.95
2023-02-03T01:22:12.267Z,1.30
2023-02-03T01:24:14.328Z,0.85
2023-02-03T01:26:15.991Z,1.40
2023-02-03T01:28:17.089Z,1.00
2023-02-03T01:30:19.418Z,1.65
2023-02-03T01:32:21.253Z,0.10
2023-02-03T01:34:22.005Z,1.60
2023-02-03T01:36:24.155Z,4.33
2023-02-03T01:38:25.055Z,2.05
2023-02-03T01:40:26.210Z,1.05
2023-02-03T01:42:28.079Z,0.72
2023-02-03T01:44:43.079Z,2.92
2023-02-03T01:46:48.116Z,1.72
2023-02-03T01:48:49.355Z,1.05
2023-02-03T01:50:51.735Z,1.00
2023-02-03T01:52:54.405Z,4.47
2023-02-03T01:54:56.856Z,2.05
2023-02-03T01:57:02.644Z,3.92
2023-02-03T01:59:03.599Z,3.98
2023-02-03T02:01:04.625Z,1.30
2023-02-03T02:03:06.308Z,3.33
2023-02-03T02:05:09.131Z,2.10
2023-02-03T02:07:10.405Z,3.50
2023-02-03T02:09:13.765Z,2.10
2023-02-03T02:11:17.831Z,2.02
2023-02-03T02:13:19.298Z,1.87
2023-02-03T02:15:23.780Z,1.50
2023-02-03T02:17:44.597Z,1.77
2023-02-03T02:19:47.253Z,1.42
2023-02-03T02:22:09.675Z,1.95
2023-02-03T02:24:28.083Z,0.78
2023-02-03T02:26:39.861Z,1.77
2023-02-03T02:28:59.813Z,1.15
2023-02-03T02:31:02.593Z,2.05
2023-02-03T02:33:08.239Z,2.12
2023-02-03T02:35:10.927Z,1.07
2023-02-03T02:37:30.437Z,1.25
2023-02-03T02:39:39.956Z,1.67
2023-02-03T02:41:48.701Z,2.22
2023-02-03T02:43:51.625Z,1.52
2023-02-03T02:45:55.608Z,1.47
2023-02-03T02:48:02.747Z,1.37
2023-02-03T02:50:05.428Z,1.45
2023-02-03T02:52:07.907Z,1.05
2023-02-03T02:54:10.708Z,0.20
2023-02-03T02:56:13.736Z,1.57
2023-02-03T02:58:16.354Z,1.25
2023-02-03T03:00:17.949Z,2.65
2023-02-03T03:02:18.705Z,1.12
2023-02-03T03:04:24.154Z,0.75
2023-02-03T03:06:37.873Z,1.67
2023-02-03T03:08:40.643Z,2.33
2023-02-03T03:10:42.568Z,0.80
2023-02-03T03:12:45.228Z,2.62
2023-02-03T03:14:51.639Z,1.82
2023-02-03T03:16:54.312Z,2.22
2023-02-03T03:18:56.998Z,2.15
2023-02-03T03:21:01.070Z,1.75
2023-02-03T03:23:09.944Z,1.25
2023-02-03T03:25:12.677Z,0.95
2023-02-03T03:27:18.432Z,1.27
2023-02-03T03:29:21.212Z,0.88
2023-02-03T03:31:22.031Z,2.02
2023-02-03T03:33:23.341Z,1.05
2023-02-03T03:35:26.108Z,1.47
2023-02-03T03:37:28.787Z,1.02
2023-02-03T03:39:46.610Z,1.00
2023-02-03T03:41:52.141Z,1.70
2023-02-03T03:43:54.836Z,1.07
2023-02-03T03:46:00.624Z,1.40
2023-02-03T03:48:06.352Z,1.87
2023-02-03T03:50:10.392Z,0.40
2023-02-03T03:52:13.053Z,0.85
2023-02-03T03:54:15.417Z,1.40
2023-02-03T03:56:18.137Z,2.27
2023-02-03T03:58:23.593Z,1.62
2023-02-03T04:00:26.118Z,0.90
2023-02-03T04:02:28.106Z,2.05
2023-02-03T04:04:30.192Z,0.70
2023-02-03T04:06:30.971Z,2.00
2023-02-03T04:08:31.728Z,0.75
2023-02-03T04:10:36.820Z,1.15
2023-02-03T04:12:37.722Z,2.00
2023-02-03T04:14:38.779Z,1.22
2023-02-03T04:16:39.724Z,0.93
2023-02-03T04:18:40.593Z,1.65
2023-02-03T04:20:41.646Z,1.80
2023-02-03T04:22:42.602Z,0.90
2023-02-03T04:24:43.386Z,0.93
2023-02-03T04:26:44.307Z,1.67
2023-02-03T04:28:45.127Z,1.55
2023-02-03T04:30:46.021Z,1.77
2023-02-03T04:32:47.048Z,2.02
2023-02-03T04:34:47.999Z,1.40
2023-02-03T04:36:48.767Z,1.30
2023-02-03T04:38:49.619Z,2.10
2023-02-03T04:40:50.674Z,0.90
2023-02-03T04:42:51.430Z,0.55
2023-02-03T04:44:52.191Z,2.08
2023-02-03T04:46:53.022Z,0.95
2023-02-03T04:48:53.815Z,1.75
2023-02-03T04:50:54.567Z,1.45
2023-02-03T04:52:55.315Z,3.00
2023-02-03T04:54:56.116Z,0.33
2023-02-03T04:56:56.903Z,1.85
2023-02-03T04:58:57.649Z,0.40
2023-02-03T05:01:00.355Z,1.00
2023-02-03T05:03:01.294Z,1.35
2023-02-03T05:05:02.333Z,1.67
2023-02-03T05:07:03.103Z,1.15
2023-02-03T05:09:04.147Z,0.47
2023-02-03T05:11:06.588Z,1.72
2023-02-03T05:13:07.561Z,0.85
2023-02-03T05:15:08.490Z,1.40
2023-02-03T05:17:09.356Z,1.02
2023-02-03T05:19:10.098Z,0.65
2023-02-03T05:21:10.863Z,1.35
2023-02-03T05:23:11.617Z,1.45
2023-02-03T05:25:13.084Z,1.98
2023-02-03T05:27:14.021Z,1.87
2023-02-03T05:29:14.779Z,1.30
2023-02-03T05:31:15.683Z,1.52
2023-02-03T05:33:16.583Z,1.27
2023-02-03T05:35:17.372Z,0.90
2023-02-03T05:37:18.210Z,1.25
2023-02-03T05:39:18.977Z,2.05
2023-02-03T05:41:38.182Z,0.82
2023-02-03T05:43:39.026Z,2.10
2023-02-03T05:45:40.046Z,0.90
2023-02-03T05:47:40.931Z,1.22
2023-02-03T05:49:41.686Z,0.55
2023-02-03T05:51:42.738Z,1.75
2023-02-03T05:53:43.602Z,1.15
2023-02-03T05:55:44.819Z,0.98
2023-02-03T05:57:45.619Z,0.30
2023-02-03T05:59:46.368Z,1.75
2023-02-03T06:01:47.119Z,0.50
2023-02-03T06:03:48.137Z,0.55
2023-02-03T06:05:49.445Z,0.60
2023-02-03T06:07:50.202Z,1.02
2023-02-03T06:09:50.987Z,0.50
2023-02-03T06:11:51.726Z,0.95
2023-02-03T06:13:52.483Z,1.07
2023-02-03T06:15:53.435Z,0.70
2023-02-03T06:17:54.191Z,0.47
2023-02-03T06:19:54.949Z,2.45
2023-02-03T06:21:55.859Z,0.33
2023-02-03T06:23:56.958Z,0.80
2023-02-03T06:25:59.633Z,1.05
2023-02-03T06:28:00.568Z,0.95
2023-02-03T06:30:01.555Z,1.27
2023-02-03T06:32:02.593Z,0.98
2023-02-03T06:34:03.641Z,1.72
2023-02-03T06:36:04.996Z,0.80
2023-02-03T06:38:05.866Z,0.95
2023-02-03T06:40:07.205Z,1.45
2023-02-03T06:42:07.970Z,0.82
2023-02-03T06:44:08.814Z,0.98
2023-02-03T06:46:09.666Z,1.87
2023-02-03T06:48:10.477Z,1.67
2023-02-03T06:50:12.334Z,1.37
2023-02-03T06:52:14.706Z,1.98
2023-02-03T06:54:15.817Z,2.65
2023-02-03T06:56:16.564Z,0.80
2023-02-03T06:58:17.390Z,1.60
2023-02-03T07:00:19.321Z,2.22
2023-02-03T07:02:20.830Z,3.15
2023-02-03T07:04:21.997Z,3.30
2023-02-03T07:06:23.466Z,1.37
2023-02-03T07:08:24.260Z,2.30
2023-02-03T07:10:25.109Z,2.65
2023-02-03T07:12:26.120Z,1.60
2023-02-03T07:14:27.000Z,2.10
2023-02-03T07:16:28.068Z,3.40
2023-02-03T07:18:46.332Z,1.98
2023-02-03T07:20:32.972Z,1.47
2023-02-03T07:22:35.586Z,1.92
2023-02-03T07:24:36.348Z,1.57
2023-02-03T07:26:38.428Z,2.25
2023-02-03T07:28:39.545Z,2.30
2023-02-03T07:30:40.311Z,1.80
2023-02-03T07:32:41.180Z,2.98
2023-02-03T07:34:41.937Z,1.57
2023-02-03T07:36:44.722Z,1.20
2023-02-03T07:38:45.511Z,1.20
2023-02-03T07:40:46.494Z,1.85
2023-02-03T07:42:47.857Z,1.75
2023-02-03T07:44:48.614Z,2.30
2023-02-03T07:46:49.405Z,2.35
2023-02-03T07:48:50.351Z,1.60
2023-02-03T07:50:52.215Z,1.50
2023-02-03T07:52:54.787Z,2.30
2023-02-03T07:54:55.672Z,2.10
2023-02-03T07:56:56.434Z,1.47
2023-02-03T07:58:57.930Z,1.87
2023-02-03T08:00:58.800Z,1.82
2023-02-03T08:03:01.469Z,0.85
2023-02-03T08:05:02.485Z,2.05
2023-02-03T08:07:03.677Z,1.57
2023-02-03T08:09:04.555Z,0.88
2023-02-03T08:11:05.326Z,1.45
2023-02-03T08:13:06.197Z,1.62
2023-02-03T08:15:07.897Z,1.25
2023-02-03T08:17:08.761Z,1.40
2023-02-03T08:19:09.820Z,1.67
2023-02-03T08:21:10.598Z,0.98
2023-02-03T08:23:11.743Z,1.17
2023-02-03T08:25:12.623Z,0.78
2023-02-03T08:27:14.294Z,2.45
2023-02-03T08:29:15.109Z,2.12
2023-02-03T08:31:16.005Z,2.98
2023-02-03T08:33:16.904Z,2.05
2023-02-03T08:35:17.774Z,2.20
2023-02-03T08:37:20.042Z,3.70
2023-02-03T08:39:21.145Z,2.80
2023-02-03T08:41:22.041Z,3.62
2023-02-03T08:43:22.901Z,2.08
2023-02-03T08:45:23.810Z,4.28
2023-02-03T08:47:24.852Z,2.58
2023-02-03T08:49:26.558Z,3.87
2023-02-03T08:51:27.653Z,2.35
2023-02-03T08:53:28.532Z,4.67
2023-02-03T08:55:29.522Z,2.87
2023-02-03T08:57:36.742Z,4.92
2023-02-03T08:59:38.349Z,5.05
2023-02-03T09:01:43.678Z,3.30
2023-02-03T09:03:44.581Z,3.00
2023-02-03T09:07:44.675Z,4.50
2023-02-03T09:09:45.609Z,4.95
2023-02-03T09:11:46.560Z,3.02
2023-02-03T09:13:47.949Z,3.75
2023-02-03T09:15:48.965Z,1.82
2023-02-03T09:17:50.040Z,2.35
2023-02-03T09:19:50.982Z,8.13
2023-02-03T09:21:51.961Z,4.58
2023-02-03T09:23:52.828Z,2.35
2023-02-03T09:25:53.708Z,1.50
2023-02-03T09:27:54.570Z,5.67
2023-02-03T09:29:57.366Z,4.28
2023-02-03T09:31:59.338Z,5.83
2023-02-03T09:34:00.368Z,1.95
2023-02-03T09:36:01.256Z,4.03
2023-02-03T09:38:02.219Z,4.33
2023-02-03T09:40:03.352Z,3.25
2023-02-03T09:42:06.281Z,3.22
2023-02-03T09:44:09.067Z,6.83
2023-02-03T09:46:11.875Z,4.35
2023-02-03T09:48:17.428Z,4.17
2023-02-03T09:50:20.243Z,3.92
2023-02-03T09:52:31.707Z,1.50
2023-02-03T09:54:42.446Z,3.47
2023-02-03T09:56:45.230Z,3.67
2023-02-03T09:58:46.129Z,3.42
2023-02-03T10:00:48.971Z,5.03
2023-02-03T10:02:51.788Z,2.00
2023-02-03T10:05:11.631Z,5.17
2023-02-03T10:07:19.222Z,5.28
2023-02-03T10:09:28.358Z,3.58
2023-02-03T10:11:34.060Z,5.58
2023-02-03T10:13:41.540Z,5.55
2023-02-03T10:15:44.421Z,4.40
2023-02-03T10:17:50.121Z,4.72
2023-02-03T10:19:58.790Z,6.28
2023-02-03T10:22:00.877Z,3.17
2023-02-03T10:24:02.999Z,2.45
2023-02-03T10:26:05.892Z,3.22
2023-02-03T10:28:12.215Z,2.87
2023-02-03T10:30:21.038Z,5.28
2023-02-03T10:32:23.524Z,2.80
2023-02-03T10:34:24.814Z,5.83
2023-02-03T10:36:39.595Z,2.30
2023-02-03T10:38:55.076Z,6.10
2023-02-03T10:40:56.321Z,6.00
2023-02-03T10:43:17.275Z,5.53
2023-02-03T10:45:19.662Z,4.40
2023-02-03T10:47:22.463Z,2.02
2023-02-03T10:49:25.200Z,5.20
2023-02-03T10:51:31.195Z,4.35
2023-02-03T10:53:33.598Z,5.70
2023-02-03T10:55:34.471Z,4.62
2023-02-03T10:57:36.261Z,5.45
2023-02-03T10:59:39.056Z,2.77
2023-02-03T11:01:47.753Z,6.53
2023-02-03T11:03:57.302Z,3.77
2023-02-03T11:06:05.796Z,4.55
2023-02-03T11:08:14.352Z,4.00
2023-02-03T11:10:29.149Z,6.53
2023-02-03T11:12:30.261Z,3.55
2023-02-03T11:14:33.106Z,5.37
2023-02-03T11:16:35.606Z,5.67
2023-02-03T11:18:56.771Z,1.87
2023-02-03T11:20:58.048Z,2.87
2023-02-03T11:22:59.358Z,6.42
2023-02-03T11:25:01.621Z,3.95
2023-02-03T11:27:06.105Z,5.22
2023-02-03T11:29:09.027Z,2.52
2023-02-03T11:31:17.545Z,5.25
2023-02-03T11:33:19.908Z,5.40
2023-02-03T11:35:23.845Z,4.40
2023-02-03T11:37:30.161Z,4.78
2023-02-03T11:39:35.060Z,2.85
2023-02-03T11:41:36.946Z,4.40
2023-02-03T11:43:37.899Z,4.28
2023-02-03T11:45:41.303Z,4.70
2023-02-03T11:47:56.336Z,3.08
2023-02-03T11:50:04.886Z,3.50
2023-02-03T11:52:19.711Z,4.80
2023-02-03T11:54:40.859Z,4.28
2023-02-03T11:57:01.127Z,5.30
2023-02-03T11:59:10.074Z,2.95
2023-02-03T12:01:25.205Z,2.83
2023-02-03T12:03:31.434Z,3.92
2023-02-03T12:05:34.246Z,2.92
2023-02-03T12:07:37.028Z,4.12
2023-02-03T12:09:39.750Z,4.45
2023-02-03T12:11:59.469Z,3.67
2023-02-03T12:14:08.018Z,2.40
2023-02-03T12:16:10.751Z,2.90
2023-02-03T12:18:13.609Z,4.78
2023-02-03T12:20:34.546Z,4.35
2023-02-03T12:22:44.458Z,4.25
2023-02-03T12:24:59.601Z,4.08
2023-02-03T12:27:02.394Z,4.05
2023-02-03T12:29:05.278Z,2.67
2023-02-03T12:31:11.436Z,3.20
2023-02-03T12:33:26.480Z,1.82
2023-02-03T12:35:31.654Z,3.42
2023-02-03T12:37:33.840Z,3.37
2023-02-03T12:39:36.648Z,4.65
2023-02-03T12:41:39.263Z,2.00
2023-02-03T12:43:42.021Z,5.53
2023-02-03T12:45:44.746Z,4.42
2023-02-03T12:47:48.925Z,3.33
2023-02-03T12:49:52.093Z,6.17
2023-02-03T12:51:58.851Z,5.83
2023-02-03T12:54:04.552Z,4.95
2023-02-03T12:56:13.154Z,3.50
2023-02-03T12:58:21.711Z,4.80
2023-02-03T13:00:30.855Z,4.65
2023-02-03T13:02:34.007Z,4.47
2023-02-03T13:04:43.051Z,4.37
2023-02-03T13:06:45.895Z,3.27
2023-02-03T13:08:51.621Z,3.92
2023-02-03T13:10:54.309Z,2.83
2023-02-03T13:12:56.897Z,2.40
2023-02-03T13:15:08.995Z,3.95
2023-02-03T13:17:14.556Z,4.28
2023-02-03T13:19:20.387Z,4.03
2023-02-03T13:21:22.985Z,3.45
2023-02-03T13:23:24.198Z,3.75
2023-02-03T13:25:27.035Z,6.58
2023-02-03T13:27:46.818Z,6.10
2023-02-03T13:29:58.835Z,2.52
2023-02-03T13:32:10.875Z,3.12
2023-02-03T13:34:30.637Z,3.17
2023-02-03T13:36:51.604Z,4.30
2023-02-03T13:38:54.449Z,3.27
2023-02-03T13:40:57.342Z,4.55
2023-02-03T13:43:00.156Z,5.22
2023-02-03T13:45:19.828Z,3.62
2023-02-03T13:47:22.686Z,3.40
2023-02-03T13:49:31.007Z,3.05
2023-02-03T13:51:34.236Z,4.65
2023-02-03T13:53:37.077Z,3.15
2023-02-03T13:55:39.750Z,8.13
2023-02-03T13:57:40.665Z,2.92
2023-02-03T13:59:42.951Z,3.17
2023-02-03T14:01:45.080Z,4.62
2023-02-03T14:03:46.198Z,3.40
2023-02-03T14:05:48.915Z,4.70
2023-02-03T14:07:49.895Z,4.85
2023-02-03T14:10:09.210Z,0.68
2023-02-03T14:12:14.669Z,4.80
2023-02-03T14:14:19.389Z,5.22
2023-02-03T14:16:24.564Z,4.60
2023-02-03T14:18:33.121Z,4.12
2023-02-03T14:20:35.902Z,2.33
2023-02-03T14:22:38.768Z,2.67
2023-02-03T14:24:41.692Z,3.37
2023-02-03T14:26:44.429Z,4.65
2023-02-03T14:28:46.345Z,3.95
2023-02-03T14:31:04.903Z,2.77
2023-02-03T14:33:05.921Z,5.62
2023-02-03T14:35:08.660Z,4.25
2023-02-03T14:37:11.360Z,5.70
2023-02-03T14:39:20.551Z,4.45
2023-02-03T14:41:23.380Z,3.62
2023-02-03T14:43:26.196Z,4.08
2023-02-03T14:45:48.305Z,4.17
2023-02-03T14:47:51.089Z,3.30
2023-02-03T14:49:56.705Z,2.22
2023-02-03T14:52:16.519Z,4.90
2023-02-03T14:54:28.437Z,4.67
2023-02-03T14:57:06.733Z,3.42
2023-02-03T14:59:09.540Z,4.58
2023-02-03T15:01:29.347Z,3.83
2023-02-03T15:03:30.579Z,3.70
2023-02-03T15:05:33.373Z,2.20
2023-02-03T15:07:41.121Z,1.92
2023-02-03T15:09:45.227Z,3.87
2023-02-03T15:11:47.241Z,3.70
2023-02-03T15:13:48.129Z,3.52
2023-02-03T15:15:50.163Z,5.15
2023-02-03T15:17:52.425Z,3.12
2023-02-03T15:19:53.503Z,1.85
2023-02-03T15:21:54.399Z,2.98
2023-02-03T15:23:55.373Z,5.08
2023-02-03T15:25:57.255Z,5.67
2023-02-03T15:28:16.190Z,2.85
2023-02-03T15:30:27.348Z,3.45
2023-02-03T15:32:30.121Z,3.20
2023-02-03T15:34:45.046Z,5.50
2023-02-03T15:36:47.832Z,5.08
2023-02-03T15:38:50.616Z,2.87
2023-02-03T15:40:53.893Z,3.25
2023-02-03T15:43:02.828Z,1.72
2023-02-03T15:45:05.626Z,3.50
2023-02-03T15:47:08.449Z,6.22
2023-02-03T15:49:14.191Z,2.95
2023-02-03T15:51:21.348Z,2.92
2023-02-03T15:53:34.452Z,5.28
2023-02-03T15:55:34.352Z,4.83
2023-02-03T15:57:36.621Z,3.58
2023-02-03T15:59:39.727Z,4.50
2023-02-03T16:01:40.696Z,6.78
2023-02-03T16:03:46.332Z,4.78
2023-02-03T16:05:49.047Z,6.78
2023-02-03T16:07:50.194Z,3.80
2023-02-03T16:09:51.571Z,4.60
2023-02-03T16:12:06.775Z,4.08
2023-02-03T16:14:09.523Z,2.05
2023-02-03T16:16:15.135Z,4.12
2023-02-03T16:18:17.027Z,4.28
2023-02-03T16:20:19.730Z,4.60
2023-02-03T16:22:28.828Z,3.92
2023-02-03T16:24:39.533Z,4.10
2023-02-03T16:26:40.471Z,4.25
2023-02-03T16:29:03.343Z,2.85
2023-02-03T16:31:38.559Z,5.00
2023-02-03T16:33:57.952Z,3.58
2023-02-03T16:36:19.738Z,4.22
2023-02-03T16:38:39.195Z,4.80
2023-02-03T16:40:59.047Z,3.47
2023-02-03T16:43:19.524Z,4.70
2023-02-03T16:45:39.411Z,2.72
2023-02-03T16:47:58.766Z,4.40
2023-02-03T16:50:29.280Z,1.80
2023-02-03T16:52:20.866Z,3.05
2023-02-03T16:54:21.767Z,3.55
2023-02-03T16:56:22.555Z,1.90
2023-02-03T16:58:23.633Z,5.70
2023-02-03T17:00:24.504Z,3.92
2023-02-03T17:02:25.326Z,1.98
2023-02-03T17:04:26.177Z,1.15
2023-02-03T17:06:27.385Z,3.02
2023-02-03T17:08:28.285Z,2.40
2023-02-03T17:10:29.147Z,2.77
2023-02-03T17:12:32.040Z,3.12
2023-02-03T17:14:32.952Z,4.50
2023-02-03T17:16:33.906Z,1.10
2023-02-03T17:18:35.168Z,2.30
2023-02-03T17:20:36.338Z,4.65
2023-02-03T17:22:39.026Z,3.02
2023-02-03T17:24:39.843Z,3.72
2023-02-03T17:26:40.617Z,2.45
2023-02-03T17:28:42.428Z,3.35
2023-02-03T17:30:43.684Z,4.35
2023-02-03T17:32:44.647Z,1.12
2023-02-03T17:34:45.524Z,2.52
2023-02-03T17:36:46.392Z,1.90
2023-02-03T17:55:05.535Z,3.08
2023-02-03T17:57:06.327Z,4.30
2023-02-03T17:59:07.724Z,3.17
2023-02-03T18:01:11.838Z,2.08
2023-02-03T18:03:12.700Z,3.47
2023-02-03T18:05:13.551Z,2.40
2023-02-03T18:07:14.409Z,3.60
2023-02-03T18:09:15.805Z,2.90
2023-02-03T18:11:17.297Z,3.47
2023-02-03T18:13:18.218Z,1.32
2023-02-03T18:15:19.092Z,1.98
2023-02-03T18:17:19.903Z,2.90
2023-02-03T18:19:20.809Z,1.62
2023-02-03T18:21:22.801Z,3.27
2023-02-03T18:23:23.610Z,1.42
2023-02-03T18:25:24.485Z,1.12
2023-02-03T18:27:25.377Z,3.33
2023-02-03T18:29:26.886Z,3.55
2023-02-03T18:31:27.840Z,1.32
2023-02-03T18:33:28.956Z,2.20
2023-02-03T18:35:31.650Z,1.45
2023-02-03T18:37:32.460Z,2.42
2023-02-03T18:39:33.465Z,1.82
2023-02-03T18:41:35.761Z,2.50
2023-02-03T18:43:36.552Z,2.05
2023-02-03T18:45:37.926Z,2.05
2023-02-03T18:47:38.736Z,1.87
2023-02-03T18:49:40.173Z,2.35
2023-02-03T18:51:41.065Z,1.77
2023-02-03T18:53:43.943Z,1.10
2023-02-03T18:55:44.840Z,1.10
2023-02-03T18:57:46.237Z,0.75
2023-02-03T18:59:50.263Z,0.85
2023-02-03T19:01:51.169Z,0.75
2023-02-03T19:03:53.249Z,2.35
2023-02-03T19:05:54.469Z,1.65
2023-02-03T19:07:55.339Z,1.27
2023-02-03T19:09:56.215Z,1.95
2023-02-03T19:11:58.315Z,1.57
2023-02-03T19:13:59.200Z,0.98
2023-02-03T19:16:01.645Z,1.47
2023-02-03T19:18:02.745Z,0.50
2023-02-03T19:20:05.208Z,1.17
2023-02-03T19:22:05.990Z,0.90
2023-02-03T19:24:06.940Z,0.90
2023-02-03T19:26:09.117Z,0.40
2023-02-03T19:28:17.456Z,0.80
2023-02-03T19:30:13.541Z,1.77
2023-02-03T19:32:14.365Z,1.27
2023-02-03T19:34:16.015Z,0.72
2023-02-03T19:36:17.044Z,1.35
2023-02-03T19:38:17.927Z,1.30
2023-02-03T19:40:18.941Z,0.85
2023-02-03T19:42:19.753Z,0.30
2023-02-03T19:44:20.629Z,0.78
2023-02-03T19:46:21.541Z,1.12
2023-02-03T19:48:22.455Z,1.12
2023-02-03T19:50:23.354Z,0.35
2023-02-03T19:52:24.149Z,0.80
2023-02-03T19:54:24.950Z,0.78
2023-02-03T19:56:25.845Z,0.55
2023-02-03T19:58:26.746Z,0.75
2023-02-03T20:00:27.938Z,0.95
2023-02-03T20:02:29.029Z,1.47
2023-02-03T20:04:29.925Z,0.82
2023-02-03T20:06:30.997Z,1.02
2023-02-03T20:08:31.913Z,1.42
2023-02-03T20:10:33.142Z,0.50
2023-02-03T20:12:34.237Z,1.05
2023-02-03T20:14:35.126Z,0.88
2023-02-03T20:16:36.084Z,1.35
2023-02-03T20:18:37.423Z,0.90
2023-02-03T20:20:38.244Z,1.20
2023-02-03T20:22:39.352Z,1.72
2023-02-03T20:24:40.149Z,0.47
2023-02-03T20:26:41.015Z,1.00
2023-02-03T20:28:41.811Z,1.27
2023-02-03T20:30:42.794Z,0.33
2023-02-03T20:32:43.654Z,1.05
2023-02-03T20:34:44.459Z,0.93
2023-02-03T20:36:45.487Z,0.82
2023-02-03T20:38:46.341Z,0.20
2023-02-03T20:40:47.135Z,0.60
2023-02-03T20:42:48.312Z,0.62
2023-02-03T20:44:49.087Z,0.98
2023-02-03T20:46:51.700Z,0.95
2023-02-03T20:48:52.580Z,0.75
2023-02-03T20:50:53.617Z,0.93
2023-02-03T20:52:54.532Z,0.90
2023-02-03T20:54:55.567Z,1.00
2023-02-03T20:56:56.463Z,0.68
2023-02-03T20:58:57.650Z,0.80
2023-02-03T21:00:59.072Z,1.05
2023-02-03T21:03:18.540Z,0.72
2023-02-03T21:05:21.239Z,0.40
2023-02-03T21:07:23.159Z,0.50
2023-02-03T21:09:24.031Z,0.62
2023-02-03T21:11:26.712Z,0.80
2023-02-03T21:13:29.135Z,0.40
2023-02-03T21:15:31.377Z,0.40
2023-02-03T21:17:34.068Z,0.20
2023-02-03T21:19:34.893Z,0.10
2023-02-03T21:21:38.719Z,0.53
2023-02-03T21:23:40.517Z,0.20
2023-02-03T21:25:41.320Z,1.05
2023-02-03T21:27:44.013Z,0.68
2023-02-03T21:29:44.994Z,0.30
2023-02-03T21:31:45.911Z,0.20
2023-02-03T21:33:46.753Z,0.93
2023-02-03T21:35:47.633Z,0.40
2023-02-03T21:37:48.535Z,0.62
2023-02-03T21:39:49.530Z,0.50
2023-02-03T21:41:51.491Z,0.60
2023-02-03T21:43:53.869Z,1.98
2023-02-03T21:45:55.115Z,0.25
2023-02-03T21:47:57.367Z,0.55
2023-02-03T21:50:00.073Z,0.25
2023-02-03T21:52:00.992Z,0.30
2023-02-03T21:54:03.766Z,0.40
2023-02-03T21:56:12.428Z,0.40
2023-02-03T21:58:30.187Z,0.17
2023-02-03T22:00:45.428Z,0.20
2023-02-03T22:02:48.242Z,0.55
2023-02-03T22:04:49.052Z,0.50
2023-02-03T22:06:52.247Z,0.70
2023-02-03T22:08:54.848Z,0.10
2023-02-03T22:10:55.628Z,0.40
2023-02-03T22:12:56.423Z,0.30
2023-02-03T22:15:00.233Z,1.30
2023-02-03T22:17:01.147Z,0.20
2023-02-03T22:19:02.006Z,1.05
2023-02-03T22:21:02.791Z,0.10
2023-02-03T22:23:04.215Z,0.20
2023-02-03T22:25:05.453Z,0.30
2023-02-03T22:27:06.886Z,0.20
2023-02-03T22:29:10.433Z,0.45
2023-02-03T22:31:12.213Z,0.50
2023-02-03T22:33:13.045Z,0.30
2023-02-03T22:35:14.050Z,0.20
2023-02-03T22:37:15.050Z,0.37
2023-02-03T22:39:15.942Z,0.20
2023-02-03T22:41:16.853Z,0.65
2023-02-03T22:43:17.717Z,0.20
2023-02-03T22:45:18.902Z,0.90
2023-02-03T22:47:19.703Z,0.20
2023-02-03T22:49:20.581Z,0.50
2023-02-03T22:51:21.365Z,0.28
2023-02-03T22:53:22.273Z,0.20
2023-02-03T22:55:23.357Z,0.20
2023-02-03T22:57:24.436Z,0.20
2023-02-03T22:59:25.324Z,0.93
2023-02-03T23:01:26.113Z,0.47
2023-02-03T23:03:29.104Z,0.65
2023-02-03T23:05:30.818Z,0.10
2023-02-03T23:07:31.889Z,0.30
2023-02-03T23:09:32.677Z,0.42
2023-02-03T23:11:33.471Z,0.42
2023-02-03T23:13:34.386Z,0.10
2023-02-03T23:15:35.290Z,0.30
2023-02-03T23:17:36.179Z,0.25
2023-02-03T23:19:37.072Z,0.30
2023-02-03T23:21:37.972Z,0.25
2023-02-03T23:23:39.645Z,0.50
2023-02-03T23:25:40.461Z,0.30
2023-02-03T23:27:41.396Z,0.65
2023-02-03T23:29:42.865Z,0.33
2023-02-03T23:31:43.813Z,1.17
2023-02-03T23:33:46.673Z,0.40
2023-02-03T23:35:48.760Z,0.40
2023-02-03T23:37:49.690Z,0.30
2023-02-03T23:39:50.562Z,0.20
2023-02-03T23:41:51.461Z,0.30
2023-02-03T23:43:52.341Z,0.20
2023-02-03T23:45:53.136Z,0.20
2023-02-03T23:47:54.057Z,0.57
2023-02-03T23:49:54.999Z,0.80
2023-02-03T23:51:55.925Z,0.20
2023-02-03T23:53:56.899Z,0.72
2023-02-03T23:55:57.786Z,0.78
2023-02-03T23:57:58.610Z,0.10
2023-02-03T23:59:59.495Z,0.20
